createdAt,value
2019-01-25T00:00:02.982Z,25.60
2019-01-25T00:01:02.992Z,25.20
2019-01-25T00:02:02.974Z,23.80
2019-01-25T00:03:09.978Z,24.50
2019-01-25T00:04:03.955Z,25.70
2019-01-25T00:05:02.949Z,25.10
2019-01-25T00:06:02.924Z,23.90
2019-01-25T00:07:02.929Z,24.60
2019-01-25T00:08:02.902Z,25.90
2019-01-25T00:09:02.903Z,23.00
2019-01-25T00:10:02.905Z,25.60
2019-01-25T00:11:02.869Z,24.70
2019-01-25T00:12:02.865Z,24.80
2019-01-25T00:13:02.868Z,23.50
2019-01-25T00:14:02.859Z,26.00
2019-01-25T00:15:02.835Z,25.70
2019-01-25T00:16:02.817Z,24.10
2019-01-25T00:17:02.835Z,24.00
2019-01-25T00:18:02.796Z,26.30
2019-01-25T00:19:02.821Z,24.90
2019-01-25T00:20:02.801Z,25.90
2019-01-25T00:21:02.770Z,24.70
2019-01-25T00:22:02.753Z,24.10
2019-01-25T00:23:02.748Z,24.60
2019-01-25T00:24:02.775Z,25.40
2019-01-25T00:25:02.827Z,24.70
2019-01-25T00:26:02.731Z,24.90
2019-01-25T00:27:02.708Z,25.00
2019-01-25T00:28:02.697Z,26.80
2019-01-25T00:29:02.697Z,24.90
2019-01-25T00:30:02.675Z,24.60
2019-01-25T00:31:02.665Z,25.30
2019-01-25T00:32:02.719Z,25.40
2019-01-25T00:33:02.643Z,24.40
2019-01-25T00:34:02.650Z,25.80
2019-01-25T00:35:02.628Z,25.70
2019-01-25T00:36:02.609Z,25.60
2019-01-25T00:37:02.602Z,24.80
2019-01-25T00:38:02.638Z,24.80
2019-01-25T00:39:02.606Z,24.40
2019-01-25T00:40:06.333Z,25.60
2019-01-25T00:41:02.567Z,25.30
2019-01-25T00:42:02.548Z,25.70
2019-01-25T00:43:02.538Z,24.60
2019-01-25T00:44:02.590Z,25.50
2019-01-25T00:45:02.544Z,24.30
2019-01-25T00:46:02.513Z,25.80
2019-01-25T00:47:02.501Z,25.40
2019-01-25T00:48:02.486Z,26.00
2019-01-25T00:49:02.494Z,26.60
2019-01-25T00:50:02.470Z,26.60
2019-01-25T00:51:02.490Z,25.80
2019-01-25T00:52:02.447Z,26.80
2019-01-25T00:53:02.478Z,25.70
2019-01-25T00:54:02.429Z,26.70
2019-01-25T00:55:02.432Z,25.30
2019-01-25T00:56:02.409Z,24.90
2019-01-25T00:57:02.417Z,26.30
2019-01-25T00:58:02.412Z,25.90
2019-01-25T00:59:02.422Z,26.00
2019-01-25T01:00:02.373Z,26.90
2019-01-25T01:01:02.370Z,24.90
2019-01-25T01:02:02.343Z,25.90
2019-01-25T01:03:02.339Z,25.80
2019-01-25T01:04:02.361Z,26.10
2019-01-25T01:05:02.452Z,26.60
2019-01-25T01:06:02.303Z,25.00
2019-01-25T01:07:02.300Z,27.00
2019-01-25T01:08:02.283Z,26.50
2019-01-25T01:09:02.276Z,25.80
2019-01-25T01:10:02.276Z,26.00
2019-01-25T01:11:02.259Z,26.30
2019-01-25T01:12:02.246Z,26.00
2019-01-25T01:13:02.230Z,27.60
2019-01-25T01:14:02.276Z,25.60
2019-01-25T01:15:02.228Z,27.10
2019-01-25T01:16:02.199Z,26.80
2019-01-25T01:17:02.207Z,26.00
2019-01-25T01:18:02.183Z,26.60
2019-01-25T01:19:02.170Z,27.10
2019-01-25T01:20:02.178Z,27.10
2019-01-25T01:21:02.152Z,28.00
2019-01-25T01:22:02.136Z,26.40
2019-01-25T01:23:02.138Z,27.30
2019-01-25T01:24:02.125Z,27.00
2019-01-25T01:25:02.151Z,27.90
2019-01-25T01:26:02.101Z,26.30
2019-01-25T01:27:02.089Z,27.30
2019-01-25T01:28:02.075Z,27.60
2019-01-25T01:29:02.094Z,28.70
2019-01-25T01:30:02.077Z,25.30
2019-01-25T01:31:02.045Z,28.50
2019-01-25T01:32:02.051Z,27.70
2019-01-25T01:33:02.025Z,27.30
2019-01-25T01:34:02.018Z,27.20
2019-01-25T01:35:02.058Z,26.70
2019-01-25T01:36:01.995Z,26.80
2019-01-25T01:37:01.987Z,27.50
2019-01-25T01:38:01.974Z,27.20
2019-01-25T01:39:01.965Z,25.60
2019-01-25T01:40:02.003Z,26.40
2019-01-25T01:41:01.969Z,26.40
2019-01-25T01:42:01.932Z,26.70
2019-01-25T01:43:01.927Z,26.50
2019-01-25T01:44:01.914Z,25.80
2019-01-25T01:45:01.979Z,25.90
2019-01-25T01:46:01.893Z,26.50
2019-01-25T01:47:01.903Z,23.90
2019-01-25T01:48:01.878Z,26.20
2019-01-25T01:49:01.859Z,25.40
2019-01-25T01:50:01.868Z,25.10
2019-01-25T01:51:01.840Z,23.70
2019-01-25T01:52:01.831Z,25.20
2019-01-25T01:53:01.846Z,25.60
2019-01-25T01:54:01.813Z,26.40
2019-01-25T01:55:01.861Z,23.10
2019-01-25T01:56:01.787Z,25.80
2019-01-25T01:57:01.781Z,26.70
2019-01-25T01:58:01.767Z,25.50
2019-01-25T01:59:01.788Z,25.20
2019-01-25T02:00:01.766Z,25.70
2019-01-25T02:01:01.737Z,23.60
2019-01-25T02:02:01.727Z,25.90
2019-01-25T02:03:01.718Z,25.80
2019-01-25T02:04:01.705Z,25.00
2019-01-25T02:05:01.772Z,25.50
2019-01-25T02:06:01.685Z,25.40
2019-01-25T02:07:01.677Z,26.70
2019-01-25T02:08:01.662Z,26.90
2019-01-25T02:09:01.658Z,25.50
2019-01-25T02:10:01.676Z,25.50
2019-01-25T02:11:01.663Z,25.60
2019-01-25T02:12:01.624Z,25.90
2019-01-25T02:13:01.615Z,26.40
2019-01-25T02:14:01.700Z,25.30
2019-01-25T02:15:01.598Z,25.80
2019-01-25T02:16:01.601Z,26.40
2019-01-25T02:17:01.597Z,26.00
2019-01-25T02:18:01.565Z,26.10
2019-01-25T02:19:01.559Z,25.50
2019-01-25T02:20:01.545Z,25.20
2019-01-25T02:21:01.535Z,25.50
2019-01-25T02:22:01.543Z,26.20
2019-01-25T02:23:01.555Z,25.50
2019-01-25T02:24:01.498Z,25.30
2019-01-25T02:25:01.490Z,24.30
2019-01-25T02:26:01.485Z,27.00
2019-01-25T02:27:01.477Z,26.30
2019-01-25T02:28:01.477Z,26.10
2019-01-25T02:29:01.473Z,27.20
2019-01-25T02:30:01.446Z,27.60
2019-01-25T02:31:01.426Z,27.80
2019-01-25T02:32:01.417Z,27.10
2019-01-25T02:33:01.412Z,26.40
2019-01-25T02:34:01.429Z,28.40
2019-01-25T02:35:01.405Z,28.00
2019-01-25T02:36:01.381Z,27.20
2019-01-25T02:37:01.386Z,27.90
2019-01-25T02:38:01.358Z,28.20
2019-01-25T02:39:01.343Z,28.30
2019-01-25T02:40:01.356Z,27.90
2019-01-25T02:41:01.335Z,28.70
2019-01-25T02:42:01.316Z,29.10
2019-01-25T02:43:01.322Z,29.00
2019-01-25T02:44:01.302Z,29.80
2019-01-25T02:45:01.294Z,30.60
2019-01-25T02:46:01.290Z,32.10
2019-01-25T02:47:01.303Z,35.60
2019-01-25T02:48:01.250Z,38.20
2019-01-25T02:49:01.244Z,38.50
2019-01-25T02:50:01.258Z,39.60
2019-01-25T02:51:01.229Z,40.10
2019-01-25T02:52:01.210Z,39.10
2019-01-25T02:53:03.927Z,39.80
2019-01-25T02:54:01.188Z,41.90
2019-01-25T02:55:01.196Z,41.90
2019-01-25T02:56:01.170Z,41.00
2019-01-25T02:57:01.165Z,40.80
2019-01-25T02:58:01.147Z,41.90
2019-01-25T02:59:01.187Z,42.70
2019-01-25T03:00:01.127Z,41.80
2019-01-25T03:01:01.152Z,41.50
2019-01-25T03:02:01.109Z,39.60
2019-01-25T03:03:01.098Z,41.70
2019-01-25T03:04:01.087Z,42.10
2019-01-25T03:05:01.143Z,41.60
2019-01-25T03:06:01.082Z,41.40
2019-01-25T03:07:01.062Z,42.80
2019-01-25T03:08:01.055Z,41.30
2019-01-25T03:09:01.036Z,42.60
2019-01-25T03:10:01.034Z,41.50
2019-01-25T03:11:01.132Z,41.00
2019-01-25T03:12:01.016Z,44.50
2019-01-25T03:13:00.996Z,41.00
2019-01-25T03:14:00.990Z,41.30
2019-01-25T03:15:00.979Z,40.90
2019-01-25T03:16:01.027Z,41.80
2019-01-25T03:17:00.975Z,40.90
2019-01-25T03:18:00.947Z,41.90
2019-01-25T03:19:00.933Z,42.30
2019-01-25T03:20:00.944Z,42.00
2019-01-25T03:21:00.912Z,41.20
2019-01-25T03:22:00.905Z,42.80
2019-01-25T03:23:00.920Z,41.50
2019-01-25T03:24:00.880Z,39.80
2019-01-25T03:25:00.876Z,40.80
2019-01-25T03:26:00.879Z,39.90
2019-01-25T03:27:00.851Z,40.00
2019-01-25T03:28:00.844Z,41.30
2019-01-25T03:29:00.856Z,43.30
2019-01-25T03:30:00.824Z,39.70
2019-01-25T03:31:00.815Z,41.60
2019-01-25T03:32:00.836Z,41.60
2019-01-25T03:33:00.790Z,41.40
2019-01-25T03:34:00.786Z,42.90
2019-01-25T03:35:00.835Z,39.20
2019-01-25T03:36:00.755Z,40.00
2019-01-25T03:37:00.745Z,41.00
2019-01-25T03:38:00.760Z,40.90
2019-01-25T03:39:00.724Z,41.50
2019-01-25T03:40:00.724Z,41.10
2019-01-25T03:41:00.714Z,41.50
2019-01-25T03:42:00.719Z,42.40
2019-01-25T03:43:00.683Z,41.70
2019-01-25T03:44:00.724Z,40.70
2019-01-25T03:45:00.670Z,40.80
2019-01-25T03:46:00.653Z,39.60
2019-01-25T03:47:00.698Z,42.20
2019-01-25T03:48:00.634Z,40.90
2019-01-25T03:49:00.623Z,41.10
2019-01-25T03:50:00.652Z,42.00
2019-01-25T03:51:00.609Z,42.80
2019-01-25T03:52:00.611Z,43.20
2019-01-25T03:53:00.601Z,42.00
2019-01-25T03:54:00.570Z,42.50
2019-01-25T03:55:00.560Z,42.50
2019-01-25T03:56:00.553Z,42.00
2019-01-25T03:57:00.554Z,40.90
2019-01-25T03:58:00.527Z,41.40
2019-01-25T03:59:00.540Z,41.90
2019-01-25T04:00:00.508Z,40.50
2019-01-25T04:01:00.500Z,40.10
2019-01-25T04:02:00.506Z,41.80
2019-01-25T04:03:00.480Z,41.40
2019-01-25T04:04:00.467Z,41.70
2019-01-25T04:05:00.697Z,42.30
2019-01-25T04:06:00.455Z,41.50
2019-01-25T04:07:00.472Z,41.00
2019-01-25T04:08:00.424Z,43.20
2019-01-25T04:09:00.418Z,44.60
2019-01-25T04:10:00.405Z,42.20
2019-01-25T04:11:03.804Z,43.00
2019-01-25T04:12:00.388Z,43.00
2019-01-25T04:13:00.396Z,41.30
2019-01-25T04:14:00.363Z,42.10
2019-01-25T04:15:00.353Z,42.50
2019-01-25T04:16:00.348Z,41.80
2019-01-25T04:17:00.354Z,43.90
2019-01-25T04:18:00.325Z,43.90
2019-01-25T04:19:00.329Z,41.20
2019-01-25T04:20:00.302Z,42.40
2019-01-25T04:21:00.291Z,41.80
2019-01-25T04:22:00.286Z,42.60
2019-01-25T04:23:00.293Z,44.00
2019-01-25T04:24:00.262Z,43.70
2019-01-25T04:25:00.402Z,43.90
2019-01-25T04:26:00.249Z,42.50
2019-01-25T04:27:00.242Z,42.00
2019-01-25T04:28:00.236Z,45.20
2019-01-25T04:29:00.229Z,44.80
2019-01-25T04:30:00.248Z,42.70
2019-01-25T04:31:00.190Z,44.70
2019-01-25T04:32:00.204Z,44.80
2019-01-25T04:33:00.231Z,44.30
2019-01-25T04:34:00.155Z,43.60
2019-01-25T04:35:00.262Z,42.80
2019-01-25T04:36:00.159Z,45.30
2019-01-25T04:37:00.148Z,42.00
2019-01-25T04:38:00.122Z,43.40
2019-01-25T04:39:00.106Z,43.20
2019-01-25T04:40:00.190Z,43.80
2019-01-25T04:41:00.098Z,44.20
2019-01-25T04:42:00.100Z,44.00
2019-01-25T04:43:00.067Z,44.60
2019-01-25T04:44:00.056Z,46.20
2019-01-25T04:45:00.050Z,45.60
2019-01-25T04:46:00.037Z,45.80
2019-01-25T04:47:00.083Z,43.90
2019-01-25T04:48:00.016Z,44.50
2019-01-25T04:49:00.008Z,45.10
2019-01-25T04:49:59.991Z,45.90
2019-01-25T04:50:59.979Z,45.80
2019-01-25T04:51:59.986Z,45.80
2019-01-25T04:52:59.979Z,45.10
2019-01-25T04:53:59.953Z,45.70
2019-01-25T04:54:59.940Z,46.00
2019-01-25T04:56:00.239Z,44.60
2019-01-25T04:56:59.943Z,45.30
2019-01-25T04:57:59.912Z,47.20
2019-01-25T04:58:59.925Z,45.80
2019-01-25T04:59:59.892Z,44.40
2019-01-25T05:00:59.879Z,47.70
2019-01-25T05:01:59.883Z,45.80
2019-01-25T05:02:59.859Z,46.80
2019-01-25T05:03:59.851Z,46.80
2019-01-25T05:04:59.877Z,45.90
2019-01-25T05:05:59.829Z,46.90
2019-01-25T05:06:59.816Z,45.30
2019-01-25T05:07:59.840Z,45.30
2019-01-25T05:08:59.802Z,45.90
2019-01-25T05:09:59.787Z,47.30
2019-01-25T05:10:59.887Z,46.00
2019-01-25T05:11:59.774Z,45.80
2019-01-25T05:12:59.836Z,46.30
2019-01-25T05:13:59.745Z,47.80
2019-01-25T05:14:59.771Z,45.50
2019-01-25T05:15:59.727Z,46.70
2019-01-25T05:16:59.817Z,46.30
2019-01-25T05:17:59.725Z,47.00
2019-01-25T05:18:59.699Z,47.80
2019-01-25T05:19:59.683Z,45.40
2019-01-25T05:20:59.687Z,45.00
2019-01-25T05:21:59.661Z,45.60
2019-01-25T05:22:59.673Z,44.80
2019-01-25T05:23:59.664Z,44.90
2019-01-25T05:24:59.630Z,47.30
2019-01-25T05:25:59.677Z,46.60
2019-01-25T05:26:59.612Z,46.30
2019-01-25T05:27:59.604Z,44.80
2019-01-25T05:28:59.606Z,45.60
2019-01-25T05:29:59.602Z,44.80
2019-01-25T05:30:59.573Z,45.90
2019-01-25T05:31:59.565Z,45.70
2019-01-25T05:32:59.550Z,44.40
2019-01-25T05:33:59.586Z,46.20
2019-01-25T05:34:59.555Z,44.50
2019-01-25T05:35:59.534Z,45.10
2019-01-25T05:36:59.511Z,46.30
2019-01-25T05:37:59.503Z,44.40
2019-01-25T05:38:59.486Z,46.00
2019-01-25T05:39:59.496Z,44.70
2019-01-25T05:40:59.490Z,45.10
2019-01-25T05:41:59.564Z,44.50
2019-01-25T05:42:59.457Z,45.00
2019-01-25T05:43:59.443Z,44.10
2019-01-25T05:44:59.422Z,43.10
2019-01-25T05:45:59.415Z,43.10
2019-01-25T05:46:59.442Z,46.70
2019-01-25T05:47:59.425Z,43.10
2019-01-25T05:48:59.386Z,41.90
2019-01-25T05:49:59.379Z,44.00
2019-01-25T05:50:59.366Z,43.00
2019-01-25T05:51:59.353Z,44.20
2019-01-25T05:52:59.382Z,44.10
2019-01-25T05:53:59.353Z,43.70
2019-01-25T05:54:59.419Z,43.50
2019-01-25T05:55:59.311Z,44.00
2019-01-25T05:56:59.305Z,44.40
2019-01-25T05:57:59.315Z,44.80
2019-01-25T05:58:59.283Z,47.20
2019-01-25T05:59:59.277Z,43.20
2019-01-25T06:00:59.299Z,44.00
2019-01-25T06:01:59.253Z,42.60
2019-01-25T06:02:59.237Z,44.80
2019-01-25T06:03:59.246Z,44.70
2019-01-25T06:04:59.222Z,46.10
2019-01-25T06:05:59.214Z,44.20
2019-01-25T06:06:59.226Z,45.80
2019-01-25T06:07:59.186Z,44.60
2019-01-25T06:08:59.179Z,45.10
2019-01-25T06:09:59.185Z,43.70
2019-01-25T06:10:59.156Z,45.10
2019-01-25T06:11:59.143Z,46.80
2019-01-25T06:12:59.170Z,45.10
2019-01-25T06:13:59.125Z,45.00
2019-01-25T06:14:59.116Z,45.40
2019-01-25T06:15:59.111Z,45.60
2019-01-25T06:16:59.103Z,44.00
2019-01-25T06:17:59.097Z,44.80
2019-01-25T06:18:59.095Z,46.40
2019-01-25T06:19:59.070Z,42.90
2019-01-25T06:20:59.051Z,42.50
2019-01-25T06:21:59.044Z,44.50
2019-01-25T06:22:59.054Z,45.90
2019-01-25T06:23:59.024Z,43.80
2019-01-25T06:24:59.037Z,43.70
2019-01-25T06:25:59.000Z,42.50
2019-01-25T06:26:58.995Z,44.60
2019-01-25T06:27:59.038Z,43.20
2019-01-25T06:28:58.971Z,42.30
2019-01-25T06:29:58.962Z,42.70
2019-01-25T06:30:58.999Z,43.10
2019-01-25T06:31:58.938Z,42.50
2019-01-25T06:32:58.927Z,42.50
2019-01-25T06:33:58.940Z,42.80
2019-01-25T06:34:58.921Z,43.80
2019-01-25T06:35:58.901Z,44.20
2019-01-25T06:36:58.909Z,41.50
2019-01-25T06:37:59.087Z,44.60
2019-01-25T06:38:58.885Z,42.10
2019-01-25T06:39:58.855Z,42.50
2019-01-25T06:40:58.851Z,43.20
2019-01-25T06:41:58.839Z,43.60
2019-01-25T06:42:58.837Z,42.60
2019-01-25T06:43:58.817Z,43.00
2019-01-25T06:44:58.826Z,44.30
2019-01-25T06:45:58.801Z,44.20
2019-01-25T06:46:58.787Z,44.60
2019-01-25T06:47:58.771Z,42.80
2019-01-25T06:48:58.788Z,44.40
2019-01-25T06:49:58.754Z,43.50
2019-01-25T06:50:58.759Z,43.50
2019-01-25T06:51:58.734Z,42.50
2019-01-25T06:52:58.722Z,43.90
2019-01-25T06:53:58.728Z,43.40
2019-01-25T06:54:58.729Z,43.20
2019-01-25T06:55:58.693Z,41.80
2019-01-25T06:56:58.682Z,40.70
2019-01-25T06:57:58.672Z,42.40
2019-01-25T06:58:58.984Z,42.80
2019-01-25T06:59:58.648Z,42.70
2019-01-25T07:00:58.658Z,40.70
2019-01-25T07:01:58.631Z,42.10
2019-01-25T07:02:58.617Z,42.70
2019-01-25T07:03:58.608Z,42.40
2019-01-25T07:04:58.614Z,41.60
2019-01-25T07:05:58.590Z,42.40
2019-01-25T07:06:58.645Z,44.70
2019-01-25T07:07:58.570Z,43.20
2019-01-25T07:08:58.562Z,42.30
2019-01-25T07:09:58.552Z,43.60
2019-01-25T07:10:58.555Z,42.80
2019-01-25T07:11:58.525Z,42.10
2019-01-25T07:12:58.536Z,42.80
2019-01-25T07:13:58.508Z,42.10
2019-01-25T07:14:58.500Z,40.90
2019-01-25T07:15:58.487Z,40.10
2019-01-25T07:16:58.551Z,41.10
2019-01-25T07:17:58.471Z,42.50
2019-01-25T07:18:58.477Z,42.10
2019-01-25T07:19:58.655Z,39.50
2019-01-25T07:20:58.438Z,39.50
2019-01-25T07:21:58.424Z,39.30
2019-01-25T07:22:58.428Z,40.10
2019-01-25T07:23:58.417Z,41.40
2019-01-25T07:24:58.410Z,39.20
2019-01-25T07:25:58.381Z,39.10
2019-01-25T07:26:58.375Z,40.20
2019-01-25T07:27:58.370Z,39.90
2019-01-25T07:28:58.367Z,39.90
2019-01-25T07:29:58.343Z,40.90
2019-01-25T07:30:58.365Z,38.60
2019-01-25T07:31:58.325Z,39.50
2019-01-25T07:32:58.317Z,39.90
2019-01-25T07:33:58.313Z,36.70
2019-01-25T07:34:58.311Z,37.00
2019-01-25T07:35:58.312Z,37.30
2019-01-25T07:36:58.368Z,38.70
2019-01-25T07:37:58.261Z,37.20
2019-01-25T07:38:58.249Z,37.30
2019-01-25T07:39:58.245Z,35.60
2019-01-25T07:40:58.247Z,36.00
2019-01-25T07:42:00.288Z,37.30
2019-01-25T07:42:58.230Z,35.70
2019-01-25T07:43:58.195Z,36.80
2019-01-25T07:44:58.272Z,36.10
2019-01-25T07:45:58.180Z,36.90
2019-01-25T07:46:58.207Z,37.10
2019-01-25T07:47:58.153Z,33.50
2019-01-25T07:48:58.181Z,32.60
2019-01-25T07:49:58.150Z,31.40
2019-01-25T07:50:58.122Z,33.00
2019-01-25T07:51:58.133Z,31.30
2019-01-25T07:52:58.124Z,31.10
2019-01-25T07:53:58.109Z,34.40
2019-01-25T07:54:58.088Z,31.00
2019-01-25T07:55:58.087Z,32.20
2019-01-25T07:56:58.064Z,31.10
2019-01-25T07:57:58.050Z,30.40
2019-01-25T07:58:58.072Z,29.60
2019-01-25T07:59:58.090Z,29.00
2019-01-25T08:00:58.031Z,28.00
2019-01-25T08:01:58.224Z,28.80
2019-01-25T08:02:58.035Z,28.20
2019-01-25T08:03:57.989Z,26.70
2019-01-25T08:04:57.999Z,26.70
2019-01-25T08:05:57.983Z,27.30
2019-01-25T08:06:57.957Z,29.60
2019-01-25T08:07:57.947Z,29.80
2019-01-25T08:08:57.940Z,28.40
2019-01-25T08:09:57.958Z,29.10
2019-01-25T08:10:58.001Z,29.90
2019-01-25T08:11:57.941Z,28.80
2019-01-25T08:12:57.897Z,29.80
2019-01-25T08:13:57.889Z,28.40
2019-01-25T08:14:57.909Z,29.80
2019-01-25T08:15:57.911Z,26.50
2019-01-25T08:16:57.855Z,28.30
2019-01-25T08:17:57.871Z,26.30
2019-01-25T08:18:57.833Z,26.30
2019-01-25T08:19:59.320Z,27.40
2019-01-25T08:20:57.970Z,27.90
2019-01-25T08:21:57.826Z,28.30
2019-01-25T08:22:57.820Z,26.50
2019-01-25T08:23:57.821Z,27.10
2019-01-25T08:24:57.792Z,27.10
2019-01-25T08:25:57.764Z,25.00
2019-01-25T08:26:57.880Z,24.50
2019-01-25T08:27:57.783Z,24.60
2019-01-25T08:28:57.742Z,24.80
2019-01-25T08:29:57.769Z,24.20
2019-01-25T08:30:57.712Z,24.50
2019-01-25T08:31:57.701Z,23.30
2019-01-25T08:32:57.757Z,24.80
2019-01-25T08:33:57.682Z,25.80
2019-01-25T08:34:57.765Z,26.30
2019-01-25T08:35:57.696Z,24.90
2019-01-25T08:36:57.657Z,26.40
2019-01-25T08:37:57.641Z,26.90
2019-01-25T08:38:57.647Z,28.50
2019-01-25T08:39:57.638Z,29.80
2019-01-25T08:40:57.624Z,28.30
2019-01-25T08:41:57.632Z,32.00
2019-01-25T08:42:57.657Z,31.30
2019-01-25T08:43:57.817Z,34.00
2019-01-25T08:44:59.729Z,35.20
2019-01-25T08:45:57.608Z,34.60
2019-01-25T08:46:57.556Z,36.00
2019-01-25T08:47:57.575Z,37.90
2019-01-25T08:48:57.524Z,37.70
2019-01-25T08:49:58.065Z,38.40
2019-01-25T08:50:57.537Z,37.10
2019-01-25T08:51:57.494Z,36.80
2019-01-25T08:52:57.483Z,39.30
2019-01-25T08:53:57.501Z,36.90
2019-01-25T08:54:57.561Z,36.90
2019-01-25T08:55:57.486Z,37.90
2019-01-25T08:56:57.444Z,39.00
2019-01-25T08:57:57.502Z,39.00
2019-01-25T08:58:58.853Z,39.30
2019-01-25T08:59:57.448Z,36.70
2019-01-25T09:00:57.441Z,37.50
2019-01-25T09:01:57.388Z,37.20
2019-01-25T09:02:57.382Z,38.00
2019-01-25T09:03:57.387Z,34.90
2019-01-25T09:04:57.581Z,35.70
2019-01-25T09:05:57.380Z,35.50
2019-01-25T09:06:57.357Z,34.10
2019-01-25T09:07:57.329Z,33.50
2019-01-25T09:08:57.322Z,36.30
2019-01-25T09:09:57.310Z,33.80
2019-01-25T09:10:57.298Z,35.00
2019-01-25T09:11:57.314Z,34.70
2019-01-25T09:12:57.302Z,34.60
2019-01-25T09:13:57.269Z,35.90
2019-01-25T09:14:57.257Z,34.20
2019-01-25T09:15:57.250Z,34.80
2019-01-25T09:16:57.237Z,35.30
2019-01-25T09:17:57.236Z,33.70
2019-01-25T09:18:57.258Z,35.10
2019-01-25T09:19:57.207Z,33.70
2019-01-25T09:20:57.212Z,36.50
2019-01-25T09:21:57.184Z,35.60
2019-01-25T09:22:57.212Z,34.60
2019-01-25T09:23:57.167Z,36.20
2019-01-25T09:24:57.151Z,35.90
2019-01-25T09:26:00.981Z,35.20
2019-01-25T09:26:57.133Z,34.60
2019-01-25T09:27:57.120Z,34.90
2019-01-25T09:28:57.115Z,36.30
2019-01-25T09:29:57.101Z,35.00
2019-01-25T09:30:57.106Z,34.70
2019-01-25T09:31:57.094Z,35.50
2019-01-25T09:32:57.068Z,36.80
2019-01-25T09:33:57.066Z,36.90
2019-01-25T09:34:57.067Z,37.80
2019-01-25T09:35:57.039Z,36.70
2019-01-25T09:36:57.049Z,39.10
2019-01-25T09:37:57.035Z,41.00
2019-01-25T09:38:57.011Z,38.00
2019-01-25T09:39:57.007Z,43.60
2019-01-25T09:40:56.989Z,39.50
2019-01-25T09:41:56.989Z,36.70
2019-01-25T09:42:56.983Z,35.20
2019-01-25T09:43:56.978Z,35.10
2019-01-25T09:44:56.949Z,35.30
2019-01-25T09:45:56.939Z,35.30
2019-01-25T09:46:56.932Z,36.40
2019-01-25T09:47:56.913Z,35.00
2019-01-25T09:48:56.926Z,36.00
2019-01-25T09:49:56.928Z,35.80
2019-01-25T09:50:56.884Z,36.10
2019-01-25T09:51:56.878Z,34.90
2019-01-25T09:52:56.881Z,36.10
2019-01-25T09:53:56.855Z,37.10
2019-01-25T09:54:56.869Z,37.70
2019-01-25T09:55:56.868Z,37.70
2019-01-25T09:56:56.821Z,36.40
2019-01-25T09:57:56.817Z,37.80
2019-01-25T09:58:56.802Z,38.80
2019-01-25T09:59:56.789Z,39.50
2019-01-25T10:00:56.795Z,38.10
2019-01-25T10:01:56.801Z,37.90
2019-01-25T10:02:56.773Z,37.70
2019-01-25T10:03:56.747Z,36.70
2019-01-25T10:04:56.751Z,38.40
2019-01-25T10:05:56.841Z,39.60
2019-01-25T10:06:56.941Z,38.30
2019-01-25T10:07:56.778Z,41.70
2019-01-25T10:08:56.747Z,38.90
2019-01-25T10:09:56.690Z,37.40
2019-01-25T10:10:56.712Z,38.30
2019-01-25T10:11:56.671Z,38.00
2019-01-25T10:12:56.674Z,39.20
2019-01-25T10:13:56.666Z,39.30
2019-01-25T10:14:56.635Z,41.00
2019-01-25T10:15:56.634Z,37.70
2019-01-25T10:16:56.617Z,39.70
2019-01-25T10:17:56.614Z,43.10
2019-01-25T10:18:56.631Z,40.50
2019-01-25T10:19:56.585Z,41.90
2019-01-25T10:20:56.580Z,41.10
2019-01-25T10:21:56.574Z,42.00
2019-01-25T10:22:56.551Z,42.80
2019-01-25T10:23:56.554Z,41.80
2019-01-25T10:24:56.615Z,42.80
2019-01-25T10:25:56.521Z,42.60
2019-01-25T10:26:56.584Z,42.90
2019-01-25T10:27:57.267Z,42.60
2019-01-25T10:28:56.491Z,43.30
2019-01-25T10:29:57.018Z,44.20
2019-01-25T10:30:56.468Z,45.00
2019-01-25T10:31:56.472Z,43.80
2019-01-25T10:32:56.454Z,45.70
2019-01-25T10:33:56.432Z,43.90
2019-01-25T10:34:56.428Z,45.10
2019-01-25T10:35:56.414Z,45.70
2019-01-25T10:36:56.541Z,46.80
2019-01-25T10:37:56.395Z,46.60
2019-01-25T10:38:56.393Z,48.60
2019-01-25T10:39:56.416Z,48.50
2019-01-25T10:40:56.365Z,48.50
2019-01-25T10:41:56.372Z,49.00
2019-01-25T10:42:56.420Z,47.20
2019-01-25T10:43:56.333Z,49.10
2019-01-25T10:44:56.350Z,51.50
2019-01-25T10:45:56.308Z,48.50
2019-01-25T10:46:56.302Z,50.10
2019-01-25T10:47:56.306Z,51.30
2019-01-25T10:48:56.283Z,49.40
2019-01-25T10:49:56.489Z,51.70
2019-01-25T10:50:56.304Z,49.50
2019-01-25T10:51:56.248Z,51.50
2019-01-25T10:52:56.236Z,52.60
2019-01-25T10:53:56.250Z,52.90
2019-01-25T10:54:56.216Z,48.90
2019-01-25T10:55:56.206Z,51.70
2019-01-25T10:56:56.258Z,51.10
2019-01-25T10:57:56.182Z,51.60
2019-01-25T10:58:56.183Z,51.60
2019-01-25T10:59:56.162Z,51.60
2019-01-25T11:00:56.160Z,50.40
2019-01-25T11:01:56.176Z,50.70
2019-01-25T11:02:58.491Z,50.30
2019-01-25T11:03:56.124Z,50.00
2019-01-25T11:04:56.120Z,48.10
2019-01-25T11:05:56.101Z,49.40
2019-01-25T11:06:56.106Z,48.30
2019-01-25T11:07:56.082Z,46.10
2019-01-25T11:08:56.089Z,48.40
2019-01-25T11:09:56.063Z,48.80
2019-01-25T11:10:56.099Z,49.30
2019-01-25T11:11:56.061Z,51.00
2019-01-25T11:13:00.727Z,48.70
2019-01-25T11:13:57.015Z,49.80
2019-01-25T11:14:56.024Z,50.10
2019-01-25T11:15:55.999Z,48.20
2019-01-25T11:16:56.001Z,50.10
2019-01-25T11:17:55.973Z,51.60
2019-01-25T11:18:55.968Z,50.40
2019-01-25T11:19:55.955Z,53.20
2019-01-25T11:20:55.963Z,51.00
2019-01-25T11:21:55.951Z,51.80
2019-01-25T11:22:55.932Z,51.40
2019-01-25T11:23:55.917Z,50.60
2019-01-25T11:24:55.910Z,49.90
2019-01-25T11:25:55.894Z,52.80
2019-01-25T11:27:00.290Z,52.20
2019-01-25T11:27:55.892Z,52.20
2019-01-25T11:28:55.861Z,53.10
2019-01-25T11:29:55.850Z,52.40
2019-01-25T11:30:55.842Z,53.50
2019-01-25T11:31:55.848Z,52.10
2019-01-25T11:32:55.848Z,51.90
2019-01-25T11:33:55.826Z,53.40
2019-01-25T11:34:55.796Z,52.60
2019-01-25T11:35:55.787Z,53.60
2019-01-25T11:36:55.776Z,54.20
2019-01-25T11:37:55.768Z,54.00
2019-01-25T11:38:55.783Z,51.30
2019-01-25T11:39:55.761Z,52.50
2019-01-25T11:40:55.735Z,51.70
2019-01-25T11:41:55.727Z,55.10
2019-01-25T11:42:55.714Z,52.60
2019-01-25T11:43:55.707Z,54.60
2019-01-25T11:44:55.720Z,53.50
2019-01-25T11:45:55.700Z,52.20
2019-01-25T11:46:55.672Z,53.40
2019-01-25T11:47:55.691Z,52.50
2019-01-25T11:48:55.655Z,52.60
2019-01-25T11:49:55.649Z,53.30
2019-01-25T11:50:55.651Z,49.90
2019-01-25T11:51:55.623Z,52.20
2019-01-25T11:52:55.696Z,52.50
2019-01-25T11:53:55.615Z,51.90
2019-01-25T11:54:55.588Z,49.40
2019-01-25T11:55:55.578Z,49.30
2019-01-25T11:56:55.583Z,49.00
2019-01-25T11:57:55.555Z,49.00
2019-01-25T11:58:55.571Z,50.10
2019-01-25T11:59:55.539Z,46.60
2019-01-25T12:00:55.528Z,48.20
2019-01-25T12:01:55.576Z,44.50
2019-01-25T12:02:55.537Z,48.40
2019-01-25T12:03:55.500Z,46.90
2019-01-25T12:04:55.507Z,46.00
2019-01-25T12:05:56.891Z,45.30
2019-01-25T12:06:55.468Z,42.90
2019-01-25T12:07:55.451Z,46.70
2019-01-25T12:08:55.464Z,44.20
2019-01-25T12:09:55.439Z,45.00
2019-01-25T12:10:55.439Z,40.20
2019-01-25T12:11:55.412Z,41.40
2019-01-25T12:12:55.403Z,42.40
2019-01-25T12:13:55.389Z,40.50
2019-01-25T12:14:55.400Z,41.10
2019-01-25T12:15:55.373Z,40.80
2019-01-25T12:16:55.384Z,42.30
2019-01-25T12:17:55.353Z,42.30
2019-01-25T12:18:55.343Z,42.70
2019-01-25T12:19:55.335Z,38.20
2019-01-25T12:20:55.359Z,39.70
2019-01-25T12:21:55.309Z,42.70
2019-01-25T12:22:55.319Z,41.20
2019-01-25T12:23:55.287Z,42.50
2019-01-25T12:24:55.276Z,44.10
2019-01-25T12:25:55.268Z,42.10
2019-01-25T12:26:55.291Z,44.60
2019-01-25T12:27:55.268Z,43.70
2019-01-25T12:28:55.272Z,41.50
2019-01-25T12:29:55.222Z,42.40
2019-01-25T12:30:55.214Z,41.70
2019-01-25T12:31:55.206Z,41.40
2019-01-25T12:32:55.608Z,42.40
2019-01-25T12:33:55.186Z,43.50
2019-01-25T12:34:55.177Z,41.50
2019-01-25T12:35:55.163Z,41.50
2019-01-25T12:36:55.154Z,41.50
2019-01-25T12:37:55.140Z,42.10
2019-01-25T12:38:55.241Z,45.00
2019-01-25T12:39:55.118Z,42.40
2019-01-25T12:40:55.115Z,43.80
2019-01-25T12:41:55.107Z,40.50
2019-01-25T12:42:55.090Z,41.90
2019-01-25T12:43:55.076Z,44.00
2019-01-25T12:44:55.118Z,43.20
2019-01-25T12:45:55.055Z,42.90
2019-01-25T12:46:55.060Z,43.10
2019-01-25T12:47:55.035Z,42.40
2019-01-25T12:48:55.027Z,41.70
2019-01-25T12:49:55.015Z,42.70
2019-01-25T12:50:55.058Z,42.20
2019-01-25T12:51:54.995Z,42.50